Terminal Aerodrome Forecast
Issued by NWS

Home | Current Version | Previous Version | Text Only | Print | Product List | Glossary On
Versions: 1 2 3 4 5 6 7 8 9 10 11 12 13 14 15 16 17 18 19 20 21 22 23 24 25 26 27 28
000
FTUS43 KMKX 281741
TAFUES
TAF
KUES 281741Z 2818/2918 30005KT P6SM BKN025
     FM282100 26009KT P6SM VCSH BKN040
     FM282300 26008KT P6SM SCT040
     FM290100 26007KT P6SM FEW200
     FM291400 26011G19KT P6SM FEW250=

USA.gov is the U.S. government's official web portal to all federal, state and local government web resources and services.